createdAt,value
2023-05-10T00:00:05.851Z,101184.50
2023-05-10T00:02:32.761Z,101170.13
2023-05-10T00:04:59.597Z,101171.66
2023-05-10T00:07:26.397Z,101170.78
2023-05-10T00:09:53.138Z,101175.78
2023-05-10T00:12:19.886Z,101177.44
2023-05-10T00:14:46.680Z,101173.88
2023-05-10T00:17:13.451Z,101172.94
2023-05-10T00:19:40.228Z,101165.34
2023-05-10T00:22:07.096Z,101173.34
2023-05-10T00:24:33.873Z,101163.56
2023-05-10T00:27:01.764Z,101156.59
2023-05-10T00:29:29.542Z,101164.34
2023-05-10T00:31:56.446Z,101160.91
2023-05-10T00:34:23.215Z,101159.34
2023-05-10T00:36:49.926Z,101171.16
2023-05-10T00:39:16.856Z,101171.16
2023-05-10T00:41:43.597Z,101161.25
2023-05-10T00:44:10.382Z,101166.50
2023-05-10T00:46:37.333Z,101161.81
2023-05-10T00:49:05.527Z,101165.78
2023-05-10T00:51:33.425Z,101162.22
2023-05-10T00:54:00.417Z,101163.72
2023-05-10T00:56:29.546Z,101167.09
2023-05-10T00:58:56.796Z,101167.69
2023-05-10T01:01:23.687Z,101164.03
2023-05-10T01:03:50.995Z,101163.66
2023-05-10T01:06:17.824Z,101162.81
2023-05-10T01:08:44.723Z,101158.69
2023-05-10T01:11:11.477Z,101163.19
2023-05-10T01:13:40.314Z,101161.66
2023-05-10T01:16:07.918Z,101160.00
2023-05-10T01:18:41.736Z,101160.91
2023-05-10T01:21:22.480Z,101165.84
2023-05-10T01:23:55.176Z,101162.88
2023-05-10T01:26:36.475Z,101158.19
2023-05-10T01:29:27.245Z,101165.13
2023-05-10T01:32:15.893Z,101156.78
2023-05-10T01:34:56.903Z,101156.97
2023-05-10T01:37:34.594Z,101155.09
2023-05-10T01:40:08.838Z,101155.00
2023-05-10T01:42:53.300Z,101151.72
2023-05-10T01:45:32.021Z,101153.38
2023-05-10T01:48:13.180Z,101152.72
2023-05-10T01:50:44.646Z,101161.47
2023-05-10T01:53:14.084Z,101146.63
2023-05-10T01:55:48.093Z,101159.78
2023-05-10T01:58:18.522Z,101157.06
2023-05-10T02:00:48.500Z,101158.84
2023-05-10T02:03:17.352Z,101161.38
2023-05-10T02:05:47.737Z,101164.09
2023-05-10T02:08:15.882Z,101160.69
2023-05-10T02:10:43.954Z,101167.47
2023-05-10T02:13:12.733Z,101165.94
2023-05-10T02:15:41.336Z,101172.75
2023-05-10T02:18:10.382Z,101165.44
2023-05-10T02:20:38.765Z,101168.50
2023-05-10T02:23:06.405Z,101180.72
2023-05-10T02:25:34.301Z,101186.47
2023-05-10T02:28:03.511Z,101173.56
2023-05-10T02:30:32.929Z,101176.59
2023-05-10T02:33:00.817Z,101170.09
2023-05-10T02:35:28.694Z,101179.59
2023-05-10T02:37:56.209Z,101175.09
2023-05-10T02:40:26.812Z,101184.66
2023-05-10T02:42:57.607Z,101180.72
2023-05-10T02:45:32.727Z,101169.38
2023-05-10T02:48:00.080Z,101187.34
2023-05-10T02:50:33.579Z,101179.72
2023-05-10T02:53:10.462Z,101187.06
2023-05-10T02:55:40.108Z,101182.44
2023-05-10T02:58:07.060Z,101174.53
2023-05-10T03:00:34.002Z,101169.63
2023-05-10T03:03:01.558Z,101182.25
2023-05-10T03:05:28.390Z,101176.00
2023-05-10T03:07:55.918Z,101167.34
2023-05-10T03:10:30.672Z,101175.59
2023-05-10T03:13:31.626Z,101171.16
2023-05-10T03:16:11.471Z,101167.72
2023-05-10T03:19:21.430Z,101165.16
2023-05-10T03:21:52.588Z,101172.44
2023-05-10T03:24:22.773Z,101167.16
2023-05-10T03:26:51.443Z,101171.91
2023-05-10T03:29:18.872Z,101174.75
2023-05-10T03:31:45.787Z,101171.59
2023-05-10T03:34:12.554Z,101174.63
2023-05-10T03:36:39.414Z,101177.09
2023-05-10T03:39:06.191Z,101179.56
2023-05-10T03:41:32.954Z,101178.88
2023-05-10T03:43:59.723Z,101178.81
2023-05-10T03:46:26.565Z,101174.31
2023-05-10T03:48:53.437Z,101182.28
2023-05-10T03:51:20.336Z,101183.03
2023-05-10T03:53:47.285Z,101175.72
2023-05-10T03:56:14.126Z,101175.66
2023-05-10T03:58:40.919Z,101181.34
2023-05-10T04:01:07.669Z,101176.91
2023-05-10T04:03:36.380Z,101177.84
2023-05-10T04:06:03.635Z,101168.47
2023-05-10T04:08:31.009Z,101170.28
2023-05-10T04:11:10.940Z,101185.63
2023-05-10T04:13:39.285Z,101206.38
2023-05-10T04:16:06.436Z,101195.28
2023-05-10T04:18:33.313Z,101181.84
2023-05-10T04:21:00.103Z,101184.81
2023-05-10T04:23:28.108Z,101189.03
2023-05-10T04:26:01.643Z,101178.88
2023-05-10T04:28:28.442Z,101183.72
2023-05-10T04:31:02.310Z,101186.09
2023-05-10T04:33:29.087Z,101187.19
2023-05-10T04:35:55.819Z,101194.22
2023-05-10T04:38:22.640Z,101191.63
2023-05-10T04:40:49.463Z,101204.69
2023-05-10T04:43:16.240Z,101201.97
2023-05-10T04:45:43.109Z,101205.50
2023-05-10T04:48:10.002Z,101202.81
2023-05-10T04:50:36.889Z,101188.91
2023-05-10T04:53:03.784Z,101188.84
2023-05-10T04:55:30.675Z,101189.75
2023-05-10T04:57:58.374Z,101190.00
2023-05-10T05:00:25.860Z,101183.16
2023-05-10T05:02:52.844Z,101186.09
2023-05-10T05:05:19.755Z,101187.22
2023-05-10T05:07:46.889Z,101194.34
2023-05-10T05:10:13.796Z,101196.78
2023-05-10T05:12:40.674Z,101192.47
2023-05-10T05:15:09.943Z,101197.56
2023-05-10T05:17:36.949Z,101195.34
2023-05-10T05:20:04.370Z,101198.47
2023-05-10T05:22:31.171Z,101203.13
2023-05-10T05:24:59.363Z,101198.56
2023-05-10T05:27:27.380Z,101203.81
2023-05-10T05:29:55.393Z,101200.25
2023-05-10T05:32:22.728Z,101198.38
2023-05-10T05:34:49.959Z,101204.06
2023-05-10T05:37:18.526Z,101205.44
2023-05-10T05:39:45.844Z,101207.31
2023-05-10T05:42:14.376Z,101208.72
2023-05-10T05:44:41.331Z,101211.19
2023-05-10T05:47:08.124Z,101206.53
2023-05-10T05:49:34.917Z,101213.63
2023-05-10T05:52:03.654Z,101217.78
2023-05-10T05:54:31.800Z,101222.59
2023-05-10T05:57:01.039Z,101228.53
2023-05-10T05:59:28.303Z,101229.31
2023-05-10T06:01:55.274Z,101233.78
2023-05-10T06:04:22.215Z,101225.44
2023-05-10T06:06:49.136Z,101237.84
2023-05-10T06:09:16.083Z,101222.47
2023-05-10T06:11:43.201Z,101223.88
2023-05-10T06:14:10.465Z,101222.63
2023-05-10T06:16:37.312Z,101229.22
2023-05-10T06:19:04.364Z,101229.38
2023-05-10T06:21:31.678Z,101231.94
2023-05-10T06:23:58.653Z,101229.38
2023-05-10T06:26:25.999Z,101231.69
2023-05-10T06:28:52.729Z,101233.91
2023-05-10T06:31:19.573Z,101234.66
2023-05-10T06:33:46.458Z,101230.84
2023-05-10T06:36:14.276Z,101240.41
2023-05-10T06:38:41.255Z,101246.94
2023-05-10T06:41:08.096Z,101249.47
2023-05-10T06:43:34.899Z,101250.91
2023-05-10T06:46:01.870Z,101255.16
2023-05-10T06:48:28.784Z,101260.72
2023-05-10T06:50:55.726Z,101263.28
2023-05-10T06:53:22.505Z,101273.66
2023-05-10T06:55:50.605Z,101264.69
2023-05-10T06:58:17.624Z,101276.94
2023-05-10T07:00:44.985Z,101269.81
2023-05-10T07:03:12.280Z,101274.84
2023-05-10T07:05:39.305Z,101276.59
2023-05-10T07:08:06.232Z,101273.78
2023-05-10T07:10:33.850Z,101277.94
2023-05-10T07:13:01.606Z,101275.22
2023-05-10T07:15:29.195Z,101272.41
2023-05-10T07:17:56.730Z,101273.09
2023-05-10T07:20:23.704Z,101270.38
2023-05-10T07:22:50.600Z,101279.69
2023-05-10T07:25:17.806Z,101279.25
2023-05-10T07:27:44.854Z,101290.31
2023-05-10T07:30:12.221Z,101300.09
2023-05-10T07:32:40.613Z,101282.78
2023-05-10T07:35:08.005Z,101284.56
2023-05-10T07:37:34.869Z,101276.50
2023-05-10T07:40:02.159Z,101290.41
2023-05-10T07:42:29.037Z,101280.72
2023-05-10T07:44:56.071Z,101286.06
2023-05-10T07:47:22.952Z,101275.75
2023-05-10T07:49:49.935Z,101279.75
2023-05-10T07:52:16.872Z,101276.22
2023-05-10T07:54:43.870Z,101278.72
2023-05-10T07:57:10.968Z,101281.97
2023-05-10T07:59:37.689Z,101278.84
2023-05-10T08:02:04.546Z,101276.03
2023-05-10T08:04:31.372Z,101285.66
2023-05-10T08:06:58.149Z,101278.19
2023-05-10T08:09:25.367Z,101290.88
2023-05-10T08:11:52.429Z,101298.03
2023-05-10T08:14:19.361Z,101298.38
2023-05-10T08:16:46.274Z,101306.44
2023-05-10T08:19:13.076Z,101292.09
2023-05-10T08:21:41.569Z,101294.81
2023-05-10T08:24:08.398Z,101297.00
2023-05-10T08:29:26.768Z,101289.22
2023-05-10T08:31:55.139Z,101300.47
2023-05-10T08:34:22.187Z,101295.56
2023-05-10T08:36:49.106Z,101293.66
2023-05-10T08:39:26.755Z,101294.25
2023-05-10T08:42:02.685Z,101300.00
2023-05-10T08:44:31.406Z,101296.72
2023-05-10T08:47:00.740Z,101291.09
2023-05-10T08:49:28.753Z,101297.16
2023-05-10T08:51:57.568Z,101300.06
2023-05-10T08:54:25.924Z,101301.03
2023-05-10T08:56:54.341Z,101299.91
2023-05-10T08:59:21.166Z,101300.13
2023-05-10T09:01:50.524Z,101309.47
2023-05-10T09:04:17.452Z,101302.53
2023-05-10T09:06:44.400Z,101299.47
2023-05-10T09:09:11.642Z,101308.66
2023-05-10T09:11:38.402Z,101306.66
2023-05-10T09:14:05.538Z,101301.50
2023-05-10T09:16:32.380Z,101305.84
2023-05-10T09:18:59.192Z,101292.13
2023-05-10T09:21:26.207Z,101298.19
2023-05-10T09:23:55.313Z,101294.16
2023-05-10T09:26:25.435Z,101291.38
2023-05-10T09:28:57.233Z,101292.50
2023-05-10T09:31:26.202Z,101290.66
2023-05-10T09:33:53.404Z,101287.56
2023-05-10T09:36:20.225Z,101290.78
2023-05-10T09:38:49.326Z,101285.41
2023-05-10T09:41:26.081Z,101288.38
2023-05-10T09:43:57.410Z,101282.63
2023-05-10T09:46:24.206Z,101287.19
2023-05-10T09:48:51.022Z,101289.13
2023-05-10T09:51:25.219Z,101283.19
2023-05-10T09:54:12.028Z,101290.31
2023-05-10T09:56:41.500Z,101278.94
2023-05-10T09:59:11.252Z,101282.06
2023-05-10T10:01:38.673Z,101286.84
2023-05-10T10:04:10.208Z,101284.38
2023-05-10T10:06:38.805Z,101289.72
2023-05-10T10:09:07.505Z,101292.41
2023-05-10T10:11:39.159Z,101290.66
2023-05-10T10:14:07.000Z,101289.25
2023-05-10T10:16:34.120Z,101287.06
2023-05-10T10:19:01.908Z,101297.41
2023-05-10T10:21:28.908Z,101289.44
2023-05-10T10:23:55.651Z,101291.06
2023-05-10T10:26:23.424Z,101295.16
2023-05-10T10:29:07.981Z,101304.34
2023-05-10T10:31:43.232Z,101290.34
2023-05-10T10:34:12.380Z,101282.34
2023-05-10T10:36:46.184Z,101290.81
2023-05-10T10:39:13.915Z,101283.97
2023-05-10T10:41:50.174Z,101289.84
2023-05-10T10:44:33.239Z,101286.38
2023-05-10T10:47:01.828Z,101293.09
2023-05-10T10:49:28.778Z,101288.91
2023-05-10T10:52:34.131Z,101285.88
2023-05-10T10:55:12.107Z,101287.97
2023-05-10T10:57:44.839Z,101287.22
2023-05-10T11:00:21.488Z,101289.03
2023-05-10T11:02:50.895Z,101284.13
2023-05-10T11:05:29.742Z,101284.69
2023-05-10T11:08:00.183Z,101291.56
2023-05-10T11:10:28.259Z,101290.41
2023-05-10T11:13:06.965Z,101295.31
2023-05-10T11:15:38.918Z,101284.16
2023-05-10T11:18:20.876Z,101290.66
2023-05-10T11:21:00.900Z,101304.59
2023-05-10T11:23:48.955Z,101291.41
2023-05-10T11:26:16.029Z,101291.53
2023-05-10T11:28:47.342Z,101286.09
2023-05-10T11:31:18.842Z,101283.91
2023-05-10T11:33:51.318Z,101298.69
2023-05-10T11:36:20.654Z,101292.28
2023-05-10T11:38:51.431Z,101287.53
2023-05-10T11:41:19.929Z,101304.13
2023-05-10T11:43:54.478Z,101306.66
2023-05-10T11:46:23.268Z,101300.59
2023-05-10T11:48:52.110Z,101303.81
2023-05-10T11:51:26.353Z,101307.03
2023-05-10T11:53:55.246Z,101304.28
2023-05-10T11:56:22.912Z,101308.28
2023-05-10T11:58:58.192Z,101305.31
2023-05-10T12:01:29.029Z,101306.28
2023-05-10T12:04:01.547Z,101309.28
2023-05-10T12:06:30.506Z,101316.25
2023-05-10T12:08:57.328Z,101311.66
2023-05-10T12:11:28.925Z,101302.91
2023-05-10T12:13:57.528Z,101298.63
2023-05-10T12:16:27.304Z,101305.38
2023-05-10T12:18:57.980Z,101308.03
2023-05-10T12:21:25.191Z,101301.66
2023-05-10T12:23:53.726Z,101325.94
2023-05-10T12:26:27.589Z,101326.28
2023-05-10T12:28:55.421Z,101324.69
2023-05-10T12:31:22.678Z,101319.06
2023-05-10T12:33:50.487Z,101323.84
2023-05-10T12:36:17.877Z,101337.09
2023-05-10T12:38:49.193Z,101328.50
2023-05-10T12:41:18.754Z,101329.16
2023-05-10T12:43:49.288Z,101314.59
2023-05-10T12:46:18.751Z,101314.38
2023-05-10T12:49:08.005Z,101304.56
2023-05-10T12:51:35.746Z,101306.50
2023-05-10T12:54:03.998Z,101303.69
2023-05-10T12:56:30.770Z,101309.19
2023-05-10T12:58:57.543Z,101302.06
2023-05-10T13:01:24.353Z,101306.56
2023-05-10T13:03:51.628Z,101297.56
2023-05-10T13:06:18.407Z,101298.69
2023-05-10T13:08:45.143Z,101300.13
2023-05-10T13:11:12.008Z,101297.28
2023-05-10T13:13:38.796Z,101297.47
2023-05-10T13:16:05.862Z,101300.56
2023-05-10T13:18:32.640Z,101307.13
2023-05-10T13:20:59.644Z,101308.47
2023-05-10T13:23:26.391Z,101320.16
2023-05-10T13:25:53.220Z,101315.59
2023-05-10T13:28:20.012Z,101327.13
2023-05-10T13:30:46.944Z,101332.16
2023-05-10T13:33:13.715Z,101321.59
2023-05-10T13:35:40.577Z,101318.19
2023-05-10T13:38:09.139Z,101322.53
2023-05-10T13:40:37.023Z,101326.22
2023-05-10T13:43:03.859Z,101326.25
2023-05-10T13:45:30.876Z,101327.75
2023-05-10T13:47:58.343Z,101320.84
2023-05-10T13:50:25.433Z,101322.06
2023-05-10T13:52:52.266Z,101320.78
2023-05-10T13:55:19.431Z,101321.91
2023-05-10T13:57:46.486Z,101320.94
2023-05-10T14:00:13.926Z,101321.47
2023-05-10T14:02:41.622Z,101324.81
2023-05-10T14:05:08.950Z,101341.84
2023-05-10T14:07:35.763Z,101337.00
2023-05-10T14:10:02.533Z,101337.00
2023-05-10T14:12:29.332Z,101335.19
2023-05-10T14:14:56.126Z,101341.47
2023-05-10T14:17:23.677Z,101328.34
2023-05-10T14:19:50.512Z,101325.09
2023-05-10T14:22:17.221Z,101326.22
2023-05-10T14:24:47.729Z,101323.94
2023-05-10T14:27:14.794Z,101317.38
2023-05-10T14:29:41.620Z,101325.09
2023-05-10T14:32:08.696Z,101314.69
2023-05-10T14:34:35.648Z,101308.69
2023-05-10T14:37:02.473Z,101310.19
2023-05-10T14:39:31.210Z,101314.94
2023-05-10T14:41:57.998Z,101311.22
2023-05-10T14:44:24.931Z,101306.69
2023-05-10T14:46:52.017Z,101301.34
2023-05-10T14:49:18.755Z,101309.69
2023-05-10T14:51:46.679Z,101307.03
2023-05-10T14:54:13.426Z,101309.91
2023-05-10T14:56:40.249Z,101307.97
2023-05-10T14:59:07.063Z,101312.75
2023-05-10T15:01:38.642Z,101312.03
2023-05-10T15:04:05.907Z,101307.22
2023-05-10T15:06:34.953Z,101313.88
2023-05-10T15:09:02.609Z,101310.63
2023-05-10T15:11:30.116Z,101320.75
2023-05-10T15:13:56.935Z,101320.22
2023-05-10T15:16:23.720Z,101317.09
2023-05-10T15:18:50.536Z,101316.09
2023-05-10T15:21:18.413Z,101319.06
2023-05-10T15:23:45.309Z,101313.31
2023-05-10T15:26:12.100Z,101308.81
2023-05-10T15:28:38.947Z,101319.03
2023-05-10T15:31:05.796Z,101322.66
2023-05-10T15:33:32.982Z,101321.38
2023-05-10T15:35:59.716Z,101320.03
2023-05-10T15:38:26.872Z,101333.75
2023-05-10T15:40:58.663Z,101328.31
2023-05-10T15:43:25.554Z,101336.16
2023-05-10T15:45:52.336Z,101326.53
2023-05-10T15:48:19.468Z,101331.81
2023-05-10T15:50:46.309Z,101313.59
2023-05-10T15:53:12.992Z,101318.47
2023-05-10T15:55:39.927Z,101312.97
2023-05-10T15:58:06.705Z,101326.13
2023-05-10T16:00:33.566Z,101332.84
2023-05-10T16:03:01.077Z,101327.19
2023-05-10T16:05:32.031Z,101324.28
2023-05-10T16:07:58.814Z,101330.09
2023-05-10T16:10:25.772Z,101334.81
2023-05-10T16:12:53.363Z,101337.53
2023-05-10T16:15:21.817Z,101335.81
2023-05-10T16:17:48.830Z,101343.25
2023-05-10T16:20:15.707Z,101337.53
2023-05-10T16:22:44.486Z,101334.81
2023-05-10T16:25:13.967Z,101336.63
2023-05-10T16:27:41.054Z,101341.34
2023-05-10T16:30:08.525Z,101362.16
2023-05-10T16:32:35.455Z,101356.00
2023-05-10T16:35:02.321Z,101363.88
2023-05-10T16:37:29.124Z,101369.13
2023-05-10T16:39:55.922Z,101376.03
2023-05-10T16:42:24.141Z,101375.75
2023-05-10T16:44:51.000Z,101383.19
2023-05-10T16:47:18.240Z,101380.03
2023-05-10T16:49:45.021Z,101386.84
2023-05-10T16:52:11.777Z,101383.00
2023-05-10T16:54:38.622Z,101384.63
2023-05-10T16:57:05.509Z,101391.66
2023-05-10T16:59:32.277Z,101393.81
2023-05-10T17:01:59.065Z,101391.75
2023-05-10T17:04:25.885Z,101382.06
2023-05-10T17:06:52.662Z,101391.53
2023-05-10T17:09:20.718Z,101388.66
2023-05-10T17:11:47.494Z,101381.34
2023-05-10T17:14:14.210Z,101388.00
2023-05-10T17:16:42.156Z,101383.50
2023-05-10T17:19:09.451Z,101379.44
2023-05-10T17:21:36.381Z,101368.03
2023-05-10T17:24:03.335Z,101399.00
2023-05-10T17:26:30.209Z,101407.03
2023-05-10T17:28:57.160Z,101414.25
2023-05-10T17:31:24.035Z,101413.44
2023-05-10T17:33:50.811Z,101408.19
2023-05-10T17:36:17.563Z,101403.22
2023-05-10T17:38:44.528Z,101400.88
2023-05-10T17:41:11.372Z,101408.94
2023-05-10T17:43:38.230Z,101403.84
2023-05-10T17:46:05.104Z,101407.72
2023-05-10T17:48:32.214Z,101406.34
2023-05-10T17:50:58.959Z,101406.59
2023-05-10T17:53:26.016Z,101408.16
2023-05-10T17:55:52.873Z,101408.06
2023-05-10T17:58:19.683Z,101400.88
2023-05-10T18:00:46.574Z,101406.56
2023-05-10T18:03:13.457Z,101403.78
2023-05-10T18:05:40.530Z,101403.44
2023-05-10T18:08:07.727Z,101399.66
2023-05-10T18:10:34.667Z,101398.72
2023-05-10T18:13:02.666Z,101394.88
2023-05-10T18:15:29.549Z,101393.69
2023-05-10T18:17:56.929Z,101407.25
2023-05-10T18:20:23.950Z,101401.88
2023-05-10T18:22:50.823Z,101396.38
2023-05-10T18:25:17.842Z,101396.78
2023-05-10T18:27:44.771Z,101390.31
2023-05-10T18:30:12.696Z,101393.91
2023-05-10T18:32:39.979Z,101396.78
2023-05-10T18:35:08.141Z,101399.06
2023-05-10T18:37:36.451Z,101402.84
2023-05-10T18:40:05.057Z,101403.03
2023-05-10T18:42:32.211Z,101403.03
2023-05-10T18:44:59.093Z,101401.34
2023-05-10T18:47:26.832Z,101402.84
2023-05-10T18:49:53.717Z,101399.25
2023-05-10T18:52:20.512Z,101397.19
2023-05-10T18:54:47.597Z,101390.88
2023-05-10T18:57:14.421Z,101405.72
2023-05-10T18:59:41.542Z,101404.94
2023-05-10T19:02:08.467Z,101407.97
2023-05-10T19:04:35.304Z,101408.72
2023-05-10T19:07:03.245Z,101404.94
2023-05-10T19:09:29.983Z,101406.25
2023-05-10T19:11:56.916Z,101411.34
2023-05-10T19:14:25.364Z,101413.91
2023-05-10T19:16:53.676Z,101418.22
2023-05-10T19:19:22.499Z,101410.59
2023-05-10T19:21:51.212Z,101415.03
2023-05-10T19:24:19.730Z,101412.66
2023-05-10T19:26:48.572Z,101409.09
2023-05-10T19:29:15.602Z,101426.63
2023-05-10T19:31:42.526Z,101419.91
2023-05-10T19:34:10.521Z,101416.81
2023-05-10T19:36:37.347Z,101428.19
2023-05-10T19:39:04.112Z,101428.13
2023-05-10T19:41:31.000Z,101419.72
2023-05-10T19:43:57.875Z,101424.16
2023-05-10T19:46:24.827Z,101428.94
2023-05-10T19:48:52.276Z,101421.13
2023-05-10T19:51:19.061Z,101424.22
2023-05-10T19:53:46.096Z,101420.56
2023-05-10T19:56:13.434Z,101423.28
2023-05-10T19:58:40.711Z,101420.00
2023-05-10T20:01:08.122Z,101426.19
2023-05-10T20:03:36.170Z,101428.81
2023-05-10T20:06:04.229Z,101431.63
2023-05-10T20:08:31.582Z,101430.84
2023-05-10T20:11:00.741Z,101430.47
2023-05-10T20:13:27.594Z,101429.88
2023-05-10T20:15:58.253Z,101441.53
2023-05-10T20:18:25.619Z,101441.97
2023-05-10T20:20:57.704Z,101445.03
2023-05-10T20:23:24.536Z,101450.66
2023-05-10T20:25:51.667Z,101457.03
2023-05-10T20:28:26.386Z,101456.81
2023-05-10T20:30:55.187Z,101458.09
2023-05-10T20:33:22.684Z,101463.69
2023-05-10T20:35:50.512Z,101463.75
2023-05-10T20:38:18.359Z,101461.06
2023-05-10T20:40:45.588Z,101459.38
2023-05-10T20:43:12.398Z,101458.41
2023-05-10T20:45:39.345Z,101454.28
2023-05-10T20:48:06.597Z,101461.06
2023-05-10T20:50:33.442Z,101462.75
2023-05-10T20:53:01.129Z,101461.06
2023-05-10T20:55:28.706Z,101464.44
2023-05-10T20:57:55.877Z,101452.41
2023-05-10T21:00:22.754Z,101460.22
2023-05-10T21:02:49.699Z,101463.50
2023-05-10T21:05:17.934Z,101460.88
2023-05-10T21:07:44.788Z,101457.13
2023-05-10T21:10:12.146Z,101464.09
2023-05-10T21:12:38.955Z,101463.16
2023-05-10T21:15:06.268Z,101466.66
2023-05-10T21:17:33.124Z,101467.50
2023-05-10T21:19:59.900Z,101463.75
2023-05-10T21:22:27.299Z,101467.16
2023-05-10T21:24:54.100Z,101466.22
2023-05-10T21:27:20.925Z,101467.09
2023-05-10T21:29:47.744Z,101470.38
2023-05-10T21:32:15.090Z,101470.38
2023-05-10T21:34:42.013Z,101471.22
2023-05-10T21:37:08.843Z,101475.81
2023-05-10T21:39:36.121Z,101474.09
2023-05-10T21:42:03.810Z,101478.38
2023-05-10T21:44:31.872Z,101467.16
2023-05-10T21:46:58.817Z,101466.97
2023-05-10T21:49:25.779Z,101467.66
2023-05-10T21:51:52.609Z,101470.38
2023-05-10T21:54:19.402Z,101461.53
2023-05-10T21:56:46.224Z,101462.41
2023-05-10T21:59:13.093Z,101470.19
2023-05-10T22:01:39.960Z,101459.31
2023-05-10T22:04:06.792Z,101466.38
2023-05-10T22:06:33.553Z,101467.47
2023-05-10T22:09:00.353Z,101469.34
2023-05-10T22:11:27.548Z,101470.19
2023-05-10T22:13:54.355Z,101463.06
2023-05-10T22:16:21.167Z,101469.09
2023-05-10T22:18:48.007Z,101479.78
2023-05-10T22:21:14.857Z,101477.06
2023-05-10T22:23:41.744Z,101477.16
2023-05-10T22:26:08.537Z,101473.59
2023-05-10T22:28:35.395Z,101473.59
2023-05-10T22:31:02.124Z,101480.53
2023-05-10T22:33:29.018Z,101481.59
2023-05-10T22:35:56.091Z,101483.25
2023-05-10T22:38:22.913Z,101485.81
2023-05-10T22:40:49.707Z,101481.31
2023-05-10T22:43:16.864Z,101484.13
2023-05-10T22:45:43.800Z,101479.63
2023-05-10T22:48:10.872Z,101475.13
2023-05-10T22:50:37.850Z,101483.09
2023-05-10T22:53:04.657Z,101480.91
2023-05-10T22:55:31.473Z,101480.91
2023-05-10T22:57:58.504Z,101479.38
2023-05-10T23:00:25.288Z,101478.84
2023-05-10T23:02:52.147Z,101478.63
2023-05-10T23:05:19.553Z,101482.28
2023-05-10T23:07:48.603Z,101482.16
2023-05-10T23:10:15.453Z,101487.44
2023-05-10T23:12:42.337Z,101489.88
2023-05-10T23:15:09.664Z,101486.00
2023-05-10T23:17:36.621Z,101495.75
2023-05-10T23:20:04.287Z,101494.41
2023-05-10T23:22:31.024Z,101492.69
2023-05-10T23:24:57.872Z,101493.28
2023-05-10T23:27:28.336Z,101496.25
2023-05-10T23:29:56.052Z,101499.53
2023-05-10T23:32:23.463Z,101507.88
2023-05-10T23:34:50.240Z,101508.38
2023-05-10T23:37:17.157Z,101508.91
2023-05-10T23:39:44.015Z,101510.47
2023-05-10T23:42:10.870Z,101507.59
2023-05-10T23:44:37.680Z,101511.63
2023-05-10T23:47:04.465Z,101508.78
2023-05-10T23:49:31.303Z,101508.41
2023-05-10T23:51:58.121Z,101511.41
2023-05-10T23:54:24.878Z,101510.16
2023-05-10T23:56:51.768Z,101505.34
2023-05-10T23:59:18.537Z,101505.69
